Time;durP1;ratioP1;P1;durP2;ratioP2;P2;SDS_P1;SDS_P2;PMS_P1;PMS_P2;Temp;Humidity;BMP_temperature;BMP_pressure;BME280_temperature;BME280_humidity;BME280_pressure;Samples;Min_cycle;Max_cycle;Signal;HPM_P1;HPM_P2
2023/10/20 00:00:05;;;;;;;11.60;10.60;;;;;;;;;;4968285;28;20213;-78
2023/10/20 00:02:39;;;;;;;11.47;10.57;;;;;;;;;;4984773;28;20247;-79
2023/10/20 00:05:08;;;;;;;11.10;10.10;;;;;;;;;;5003356;28;20237;-78
2023/10/20 00:07:37;;;;;;;11.10;10.07;;;;;;;;;;4978814;28;20332;-79
2023/10/20 00:10:06;;;;;;;10.90;9.90;;;;;;;;;;4999174;28;20523;-81
2023/10/20 00:12:32;;;;;;;11.70;10.50;;;;;;;;;;4994654;28;20580;-78
2023/10/20 00:15:02;;;;;;;10.93;10.03;;;;;;;;;;5000780;28;20217;-79
2023/10/20 00:17:30;;;;;;;12.67;11.47;;;;;;;;;;4998426;28;20217;-79
2023/10/20 00:19:56;;;;;;;12.17;11.10;;;;;;;;;;4958267;28;20255;-80
2023/10/20 00:22:21;;;;;;;11.90;10.80;;;;;;;;;;4961196;28;20218;-78
2023/10/20 00:24:47;;;;;;;12.30;11.20;;;;;;;;;;4968782;28;20228;-79
2023/10/20 00:27:14;;;;;;;12.47;11.37;;;;;;;;;;4999647;28;20222;-79
2023/10/20 00:29:40;;;;;;;12.23;11.03;;;;;;;;;;4949895;28;20741;-78
2023/10/20 00:32:07;;;;;;;13.33;12.23;;;;;;;;;;4968234;28;20222;-78
2023/10/20 00:34:34;;;;;;;13.20;12.07;;;;;;;;;;4949661;28;20256;-79
2023/10/20 00:37:00;;;;;;;13.17;12.07;;;;;;;;;;4989666;28;20213;-79
2023/10/20 00:39:26;;;;;;;13.30;12.10;;;;;;;;;;5001946;28;20221;-77
2023/10/20 00:41:52;;;;;;;14.07;12.87;;;;;;;;;;4963710;28;20299;-79
2023/10/20 00:44:17;;;;;;;13.50;12.33;;;;;;;;;;4993438;28;20706;-79
2023/10/20 00:46:43;;;;;;;13.47;12.27;;;;;;;;;;4984498;28;20229;-80
2023/10/20 00:49:12;;;;;;;12.93;11.93;;;;;;;;;;4956739;28;20225;-78
2023/10/20 00:51:39;;;;;;;13.03;11.93;;;;;;;;;;4961512;28;20225;-78
2023/10/20 00:54:11;;;;;;;14.03;12.80;;;;;;;;;;4980985;28;20244;-77
2023/10/20 00:56:36;;;;;;;13.70;12.50;;;;;;;;;;4988561;28;20504;-80
2023/10/20 00:59:02;;;;;;;13.03;11.87;;;;;;;;;;4984015;28;20299;-79
2023/10/20 01:01:28;;;;;;;12.60;11.50;;;;;;;;;;4952348;28;20214;-81
2023/10/20 01:03:54;;;;;;;12.23;11.13;;;;;;;;;;4975391;28;20243;-78
2023/10/20 01:06:19;;;;;;;12.97;11.80;;;;;;;;;;4983373;28;20229;-80
2023/10/20 01:08:53;;;;;;;13.57;12.27;;;;;;;;;;4993612;28;20328;-78
2023/10/20 01:11:21;;;;;;;12.30;11.27;;;;;;;;;;4992269;28;20217;-79
2023/10/20 01:13:50;;;;;;;12.00;11.00;;;;;;;;;;4980849;28;20225;-78
2023/10/20 01:16:19;;;;;;;11.57;10.60;;;;;;;;;;4965847;28;20222;-79
2023/10/20 01:18:47;;;;;;;11.47;10.60;;;;;;;;;;4993160;28;20679;-77
2023/10/20 01:21:13;;;;;;;11.83;10.83;;;;;;;;;;4954892;28;20245;-78
2023/10/20 01:23:38;;;;;;;11.87;10.80;;;;;;;;;;4995949;28;20222;-79
2023/10/20 01:26:14;;;;;;;10.57;9.67;;;;;;;;;;4978582;28;20375;-80
2023/10/20 01:28:39;;;;;;;10.60;9.70;;;;;;;;;;4977728;28;20237;-78
2023/10/20 01:31:05;;;;;;;10.80;9.83;;;;;;;;;;4980275;28;20327;-79
2023/10/20 01:33:30;;;;;;;9.23;8.53;;;;;;;;;;4974398;28;20218;-78
2023/10/20 01:35:59;;;;;;;9.00;8.30;;;;;;;;;;4958986;28;20331;-77
2023/10/20 01:38:24;;;;;;;8.23;7.53;;;;;;;;;;5004462;28;20714;-78
2023/10/20 01:40:50;;;;;;;8.50;7.90;;;;;;;;;;4988685;28;20236;-77
2023/10/20 01:43:18;;;;;;;8.27;7.57;;;;;;;;;;4989040;28;20220;-79
2023/10/20 01:45:44;;;;;;;6.87;6.37;;;;;;;;;;4998588;28;20319;-76
2023/10/20 01:48:10;;;;;;;6.77;6.17;;;;;;;;;;4969122;28;20224;-79
2023/10/20 01:50:37;;;;;;;6.77;6.07;;;;;;;;;;4997126;28;20271;-76
2023/10/20 01:53:08;;;;;;;6.17;5.67;;;;;;;;;;4974568;28;20225;-76
2023/10/20 01:55:34;;;;;;;5.30;5.00;;;;;;;;;;4993556;28;20229;-77
2023/10/20 01:58:00;;;;;;;5.60;5.20;;;;;;;;;;5014532;28;20292;-76
2023/10/20 02:00:25;;;;;;;5.53;5.13;;;;;;;;;;5022086;28;20752;-75
2023/10/20 02:02:53;;;;;;;5.30;4.90;;;;;;;;;;4992085;28;20205;-76
2023/10/20 02:05:28;;;;;;;5.80;5.30;;;;;;;;;;4996509;28;20245;-76
2023/10/20 02:07:53;;;;;;;4.70;4.40;;;;;;;;;;4966816;28;20269;-76
2023/10/20 02:10:19;;;;;;;5.03;4.73;;;;;;;;;;5009678;28;20218;-77
2023/10/20 02:12:45;;;;;;;4.73;4.43;;;;;;;;;;4989742;28;20226;-77
2023/10/20 02:15:13;;;;;;;4.23;3.93;;;;;;;;;;5009031;28;20235;-77
2023/10/20 02:17:42;;;;;;;4.13;3.83;;;;;;;;;;4984361;28;20283;-78
2023/10/20 02:20:08;;;;;;;3.87;3.57;;;;;;;;;;4977608;28;20225;-77
2023/10/20 02:22:39;;;;;;;4.07;3.77;;;;;;;;;;4968564;28;20232;-78
2023/10/20 02:25:15;;;;;;;3.70;3.43;;;;;;;;;;4971782;28;20234;-79
2023/10/20 02:27:42;;;;;;;4.03;3.73;;;;;;;;;;4976846;28;20738;-78
2023/10/20 02:30:14;;;;;;;3.73;3.43;;;;;;;;;;4947863;28;20252;-78
2023/10/20 02:32:42;;;;;;;3.30;3.10;;;;;;;;;;4954374;28;20281;-78
2023/10/20 02:35:08;;;;;;;3.20;3.00;;;;;;;;;;4959458;28;20233;-79
2023/10/20 02:37:36;;;;;;;3.33;3.13;;;;;;;;;;4993703;28;20226;-76
2023/10/20 02:40:04;;;;;;;3.33;3.13;;;;;;;;;;4993406;28;20237;-77
2023/10/20 02:42:35;;;;;;;3.10;2.80;;;;;;;;;;4979752;28;20225;-78
2023/10/20 02:45:01;;;;;;;2.83;2.63;;;;;;;;;;4970206;28;20234;-79
2023/10/20 02:47:26;;;;;;;3.07;2.77;;;;;;;;;;4970978;28;20365;-79
2023/10/20 02:49:55;;;;;;;2.70;2.50;;;;;;;;;;4991635;28;20213;-79
2023/10/20 02:52:24;;;;;;;3.10;2.80;;;;;;;;;;4989155;28;20251;-78
2023/10/20 02:54:53;;;;;;;2.27;2.17;;;;;;;;;;4982313;28;20234;-79
2023/10/20 02:57:27;;;;;;;2.80;2.60;;;;;;;;;;5004954;28;20301;-77
2023/10/20 02:59:52;;;;;;;2.63;2.53;;;;;;;;;;4966235;28;20221;-79
2023/10/20 03:02:21;;;;;;;2.57;2.37;;;;;;;;;;4965582;28;20220;-77
2023/10/20 03:04:46;;;;;;;2.67;2.10;;;;;;;;;;5000114;28;20955;-79
2023/10/20 03:07:12;;;;;;;2.23;2.10;;;;;;;;;;4986296;28;20228;-77
2023/10/20 03:09:38;;;;;;;2.70;2.50;;;;;;;;;;4962758;28;20760;-78
2023/10/20 03:12:04;;;;;;;2.03;1.93;;;;;;;;;;4957083;28;20245;-79
2023/10/20 03:14:36;;;;;;;2.00;1.90;;;;;;;;;;4959645;28;20722;-79
2023/10/20 03:17:02;;;;;;;2.23;2.13;;;;;;;;;;4958395;28;20222;-78
2023/10/20 03:19:35;;;;;;;2.53;2.17;;;;;;;;;;4958127;28;20224;-77
2023/10/20 03:22:01;;;;;;;1.97;1.87;;;;;;;;;;5001733;28;20337;-79
2023/10/20 03:24:26;;;;;;;2.40;2.20;;;;;;;;;;4977670;28;20222;-80
2023/10/20 03:26:53;;;;;;;2.47;2.27;;;;;;;;;;4971037;28;20245;-78
2023/10/20 03:29:18;;;;;;;1.90;1.80;;;;;;;;;;4993317;28;20226;-79
2023/10/20 03:31:44;;;;;;;1.97;1.87;;;;;;;;;;4969901;28;20229;-81
2023/10/20 03:34:11;;;;;;;1.80;1.70;;;;;;;;;;4977041;28;20231;-79
2023/10/20 03:36:39;;;;;;;1.93;1.70;;;;;;;;;;4977843;28;20233;-78
2023/10/20 03:39:20;;;;;;;2.27;2.17;;;;;;;;;;4967250;28;20230;-80
2023/10/20 03:41:49;;;;;;;1.90;1.80;;;;;;;;;;4980354;28;20316;-79
2023/10/20 03:44:14;;;;;;;2.10;2.00;;;;;;;;;;4994293;28;20281;-78
2023/10/20 03:46:49;;;;;;;2.00;1.90;;;;;;;;;;4962214;28;20229;-77
2023/10/20 03:49:18;;;;;;;2.20;2.00;;;;;;;;;;4981529;28;20460;-78
2023/10/20 03:51:53;;;;;;;2.43;2.00;;;;;;;;;;4962344;28;20237;-79
2023/10/20 03:54:19;;;;;;;1.90;1.80;;;;;;;;;;4978368;28;20217;-79
2023/10/20 03:56:46;;;;;;;2.00;1.90;;;;;;;;;;4949043;28;20233;-79
2023/10/20 04:03:40;;;;;;;2.10;1.97;;;;;;;;;;4996035;28;20280;-79
2023/10/20 04:06:08;;;;;;;1.90;1.67;;;;;;;;;;4986122;28;20234;-80
2023/10/20 04:08:34;;;;;;;1.70;1.60;;;;;;;;;;4982453;28;20236;-79
2023/10/20 04:10:59;;;;;;;1.83;1.73;;;;;;;;;;4944860;28;20680;-80
2023/10/20 04:13:25;;;;;;;1.50;1.40;;;;;;;;;;4989910;28;20221;-79
2023/10/20 04:16:00;;;;;;;1.47;1.37;;;;;;;;;;4978761;28;20255;-79
2023/10/20 04:18:26;;;;;;;2.00;1.90;;;;;;;;;;4961421;28;20229;-79
2023/10/20 04:20:57;;;;;;;1.67;1.57;;;;;;;;;;4977000;28;20225;-79
2023/10/20 04:23:23;;;;;;;1.57;1.40;;;;;;;;;;4977005;28;22345;-79
2023/10/20 04:25:55;;;;;;;1.80;1.60;;;;;;;;;;4991454;28;20229;-78
2023/10/20 04:28:28;;;;;;;1.23;1.20;;;;;;;;;;4980968;28;20236;-78
2023/10/20 04:58:55;;;;;;;1.30;1.20;;;;;;;;;;5006463;28;20308;-78
2023/10/20 05:03:49;;;;;;;1.30;1.20;;;;;;;;;;4999787;28;20222;-78
2023/10/20 05:06:22;;;;;;;1.57;1.13;;;;;;;;;;4993353;28;20288;-78
2023/10/20 05:08:51;;;;;;;1.30;1.20;;;;;;;;;;4991681;28;20233;-80
2023/10/20 05:11:17;;;;;;;1.40;1.30;;;;;;;;;;4991622;28;20220;-79
2023/10/20 05:13:42;;;;;;;1.30;1.20;;;;;;;;;;4981328;28;20244;-80
2023/10/20 05:16:10;;;;;;;1.30;1.20;;;;;;;;;;4997648;28;20225;-80
2023/10/20 05:18:39;;;;;;;1.07;1.07;;;;;;;;;;5000553;28;20307;-79
2023/10/20 05:21:08;;;;;;;1.10;1.10;;;;;;;;;;4982261;28;20226;-78
2023/10/20 05:23:34;;;;;;;1.27;1.03;;;;;;;;;;4962913;28;20229;-79
2023/10/20 05:26:02;;;;;;;1.40;1.30;;;;;;;;;;4983305;28;20232;-79
2023/10/20 05:28:31;;;;;;;1.43;1.30;;;;;;;;;;4965991;28;20279;-80
2023/10/20 05:31:02;;;;;;;1.50;1.40;;;;;;;;;;4976280;28;20233;-81
2023/10/20 05:33:28;;;;;;;1.90;1.50;;;;;;;;;;4978277;28;21455;-80
2023/10/20 05:35:59;;;;;;;1.53;1.43;;;;;;;;;;4973126;28;20242;-80
2023/10/20 05:38:27;;;;;;;1.37;1.27;;;;;;;;;;4979417;28;20222;-81
2023/10/20 05:40:59;;;;;;;1.40;1.30;;;;;;;;;;4981452;28;20299;-78
2023/10/20 05:43:27;;;;;;;1.20;1.20;;;;;;;;;;4967854;28;20259;-80
2023/10/20 05:45:55;;;;;;;1.40;1.30;;;;;;;;;;4980602;28;20232;-80
2023/10/20 05:48:21;;;;;;;1.60;1.50;;;;;;;;;;4998536;28;20232;-79
2023/10/20 05:50:46;;;;;;;2.00;1.50;;;;;;;;;;4965959;28;20229;-79
2023/10/20 05:53:12;;;;;;;1.40;1.30;;;;;;;;;;4979763;28;20222;-79
2023/10/20 05:55:37;;;;;;;1.50;1.33;;;;;;;;;;4958185;28;20719;-80
2023/10/20 05:58:03;;;;;;;1.30;1.20;;;;;;;;;;4973325;28;20248;-79
2023/10/20 06:00:29;;;;;;;1.37;1.20;;;;;;;;;;4979572;28;20317;-80
2023/10/20 06:02:55;;;;;;;1.40;1.30;;;;;;;;;;4987126;28;20243;-79
2023/10/20 06:05:22;;;;;;;1.40;1.23;;;;;;;;;;4968374;28;20228;-79
2023/10/20 06:07:52;;;;;;;1.60;1.50;;;;;;;;;;4993385;28;20232;-79
2023/10/20 06:10:24;;;;;;;1.70;1.50;;;;;;;;;;4977347;28;20225;-80
2023/10/20 06:12:52;;;;;;;1.40;1.30;;;;;;;;;;4981185;28;20221;-79
2023/10/20 06:15:19;;;;;;;1.47;1.37;;;;;;;;;;4990766;28;20223;-79
2023/10/20 06:17:45;;;;;;;1.60;1.50;;;;;;;;;;4966940;28;20308;-79
2023/10/20 06:20:13;;;;;;;1.50;1.40;;;;;;;;;;4973438;28;20297;-78
2023/10/20 06:22:40;;;;;;;1.50;1.40;;;;;;;;;;4978244;28;20585;-78
2023/10/20 06:25:12;;;;;;;1.60;1.50;;;;;;;;;;4979693;28;20222;-79
2023/10/20 06:27:41;;;;;;;1.90;1.80;;;;;;;;;;4975548;28;20236;-80
2023/10/20 06:30:14;;;;;;;2.03;1.53;;;;;;;;;;4995838;28;20221;-79
2023/10/20 06:32:46;;;;;;;1.80;1.70;;;;;;;;;;4966772;28;20240;-78
2023/10/20 06:35:16;;;;;;;1.80;1.70;;;;;;;;;;4959977;28;20222;-79
2023/10/20 06:40:12;;;;;;;1.90;1.80;;;;;;;;;;4981016;28;20588;-81
2023/10/20 06:42:37;;;;;;;1.80;1.70;;;;;;;;;;4980849;28;20226;-78
2023/10/20 06:45:04;;;;;;;2.97;2.00;;;;;;;;;;4977963;28;20713;-79
2023/10/20 06:47:34;;;;;;;2.20;2.00;;;;;;;;;;4974503;28;20233;-79
2023/10/20 06:50:00;;;;;;;2.43;2.23;;;;;;;;;;4973385;28;20875;-78
2023/10/20 06:52:25;;;;;;;1.93;1.80;;;;;;;;;;4995437;28;20220;-79
2023/10/20 06:54:56;;;;;;;2.10;1.97;;;;;;;;;;4976461;28;20325;-77
2023/10/20 06:57:24;;;;;;;2.37;2.27;;;;;;;;;;4996579;28;20226;-79
2023/10/20 06:59:49;;;;;;;2.23;2.03;;;;;;;;;;4990741;28;20585;-79
2023/10/20 07:02:15;;;;;;;2.20;2.10;;;;;;;;;;4962261;28;20228;-79
2023/10/20 07:04:43;;;;;;;3.23;2.33;;;;;;;;;;5004778;28;20229;-78
2023/10/20 07:07:15;;;;;;;3.83;2.40;;;;;;;;;;4980507;28;20572;-77
2023/10/20 07:09:41;;;;;;;2.37;2.17;;;;;;;;;;4989326;28;20241;-78
2023/10/20 07:12:07;;;;;;;2.90;2.40;;;;;;;;;;4961659;28;20236;-79
2023/10/20 07:14:34;;;;;;;2.63;2.43;;;;;;;;;;4959367;28;20318;-77
2023/10/20 07:17:03;;;;;;;2.83;2.40;;;;;;;;;;4994130;28;20225;-79
2023/10/20 07:19:35;;;;;;;2.30;2.10;;;;;;;;;;4958652;28;20222;-79
2023/10/20 07:22:02;;;;;;;2.50;2.30;;;;;;;;;;4977947;28;20293;-77
2023/10/20 07:24:29;;;;;;;5.10;2.73;;;;;;;;;;4981675;28;20229;-78
2023/10/20 07:26:54;;;;;;;2.90;2.70;;;;;;;;;;4962474;28;20222;-79
2023/10/20 07:29:22;;;;;;;3.00;2.80;;;;;;;;;;4993989;28;20546;-80
2023/10/20 07:31:48;;;;;;;4.10;3.17;;;;;;;;;;4963290;28;20228;-79
2023/10/20 07:34:14;;;;;;;3.10;2.90;;;;;;;;;;4959950;28;20244;-78
2023/10/20 07:36:41;;;;;;;4.57;3.73;;;;;;;;;;4991577;28;20276;-78
2023/10/20 07:39:15;;;;;;;3.70;3.40;;;;;;;;;;4945485;28;20222;-80
2023/10/20 07:41:40;;;;;;;3.17;2.87;;;;;;;;;;4961559;28;20244;-79
2023/10/20 07:44:06;;;;;;;3.77;3.47;;;;;;;;;;4989571;28;20229;-78
2023/10/20 07:46:32;;;;;;;3.93;3.50;;;;;;;;;;4958419;28;20237;-79
2023/10/20 07:48:57;;;;;;;4.20;3.90;;;;;;;;;;4987999;28;20244;-79
2023/10/20 07:51:23;;;;;;;4.97;4.03;;;;;;;;;;4988533;28;20233;-79
2023/10/20 07:53:49;;;;;;;5.10;4.30;;;;;;;;;;4976538;28;20324;-79
2023/10/20 07:56:17;;;;;;;4.07;3.77;;;;;;;;;;4984768;28;20226;-79
2023/10/20 07:58:42;;;;;;;3.57;3.27;;;;;;;;;;4988640;28;20222;-78
2023/10/20 08:01:08;;;;;;;3.70;3.40;;;;;;;;;;4957216;28;20249;-80
2023/10/20 08:03:33;;;;;;;5.07;3.50;;;;;;;;;;4972793;28;20218;-79
2023/10/20 08:06:02;;;;;;;3.93;3.63;;;;;;;;;;4974613;28;20590;-77
2023/10/20 08:08:30;;;;;;;3.63;3.33;;;;;;;;;;4971167;28;20351;-79
2023/10/20 08:10:56;;;;;;;4.57;4.10;;;;;;;;;;4987175;28;20312;-79
2023/10/20 08:13:21;;;;;;;3.87;3.57;;;;;;;;;;4975661;28;20221;-80
2023/10/20 08:15:47;;;;;;;4.10;3.80;;;;;;;;;;4976583;28;20213;-81
2023/10/20 08:18:12;;;;;;;4.70;3.60;;;;;;;;;;4979817;28;20214;-80
2023/10/20 08:20:38;;;;;;;3.87;3.57;;;;;;;;;;4960873;28;20230;-78
2023/10/20 08:23:04;;;;;;;3.67;3.37;;;;;;;;;;4982243;28;20384;-80
2023/10/20 08:25:30;;;;;;;4.13;3.73;;;;;;;;;;4993192;28;20229;-79
2023/10/20 08:27:55;;;;;;;3.80;3.50;;;;;;;;;;4995889;28;20234;-81
2023/10/20 08:30:21;;;;;;;3.53;3.23;;;;;;;;;;4976792;28;20265;-80
2023/10/20 08:32:52;;;;;;;4.03;3.50;;;;;;;;;;4977668;28;20240;-77
2023/10/20 08:35:18;;;;;;;3.70;3.40;;;;;;;;;;4968614;28;20222;-78
2023/10/20 08:37:43;;;;;;;5.97;3.70;;;;;;;;;;4987727;28;20236;-80
2023/10/20 08:40:12;;;;;;;3.63;3.33;;;;;;;;;;4964300;28;20213;-81
2023/10/20 08:42:38;;;;;;;3.53;3.23;;;;;;;;;;4963408;28;20327;-79
2023/10/20 08:45:12;;;;;;;3.03;2.80;;;;;;;;;;4980422;28;20229;-79
2023/10/20 08:47:40;;;;;;;3.00;2.70;;;;;;;;;;4973224;28;20677;-80
2023/10/20 08:50:07;;;;;;;2.97;2.60;;;;;;;;;;4954107;28;20225;-79
2023/10/20 08:52:33;;;;;;;2.70;2.50;;;;;;;;;;4977342;28;20221;-80
2023/10/20 08:55:01;;;;;;;2.40;2.20;;;;;;;;;;4997573;28;20220;-79
2023/10/20 08:57:27;;;;;;;2.80;2.60;;;;;;;;;;4975329;28;20247;-80
2023/10/20 08:59:53;;;;;;;2.50;2.30;;;;;;;;;;4962673;28;20210;-80
2023/10/20 09:02:19;;;;;;;2.43;2.23;;;;;;;;;;4982949;28;20252;-79
2023/10/20 09:04:50;;;;;;;2.13;2.03;;;;;;;;;;4956970;28;20237;-79
2023/10/20 09:07:16;;;;;;;2.40;2.20;;;;;;;;;;4949510;28;20320;-77
2023/10/20 09:09:41;;;;;;;2.57;2.30;;;;;;;;;;4999206;28;20226;-78
2023/10/20 09:12:08;;;;;;;2.87;2.67;;;;;;;;;;4976834;28;20225;-79
2023/10/20 09:14:37;;;;;;;2.60;2.33;;;;;;;;;;4966449;28;20225;-79
2023/10/20 09:17:04;;;;;;;2.77;2.23;;;;;;;;;;4977829;28;20223;-80
2023/10/20 09:19:29;;;;;;;2.40;2.20;;;;;;;;;;4988550;28;20225;-81
2023/10/20 09:21:58;;;;;;;2.23;2.13;;;;;;;;;;4988611;28;20209;-78
2023/10/20 09:24:30;;;;;;;2.50;2.30;;;;;;;;;;4962342;28;20230;-83
2023/10/20 09:26:56;;;;;;;2.27;2.10;;;;;;;;;;4976264;28;20282;-78
2023/10/20 09:29:21;;;;;;;2.73;2.53;;;;;;;;;;4994162;28;20329;-78
2023/10/20 09:31:49;;;;;;;2.70;2.50;;;;;;;;;;4967767;28;20694;-79
2023/10/20 09:34:19;;;;;;;2.53;2.33;;;;;;;;;;4964232;28;20217;-80
2023/10/20 09:36:47;;;;;;;2.50;2.30;;;;;;;;;;4960054;28;20229;-79
2023/10/20 09:39:24;;;;;;;2.43;2.23;;;;;;;;;;4989902;28;20214;-80
2023/10/20 09:41:50;;;;;;;2.53;2.27;;;;;;;;;;4944750;28;20228;-78
2023/10/20 09:44:24;;;;;;;2.57;2.37;;;;;;;;;;4964005;28;20224;-79
2023/10/20 09:46:58;;;;;;;2.83;2.50;;;;;;;;;;4953426;28;20226;-79
2023/10/20 09:49:26;;;;;;;3.03;2.77;;;;;;;;;;4989031;28;20222;-77
2023/10/20 09:51:51;;;;;;;3.47;2.90;;;;;;;;;;4975663;28;20237;-76
2023/10/20 09:54:28;;;;;;;2.83;2.63;;;;;;;;;;4966874;28;20217;-80
2023/10/20 09:56:54;;;;;;;3.20;2.90;;;;;;;;;;4964629;28;20252;-81
2023/10/20 09:59:23;;;;;;;3.13;2.93;;;;;;;;;;4966198;28;20293;-80
2023/10/20 10:01:52;;;;;;;2.80;2.60;;;;;;;;;;4973678;28;20238;-78
2023/10/20 10:04:43;;;;;;;3.10;2.90;;;;;;;;;;4971058;28;20226;-79
2023/10/20 10:07:08;;;;;;;3.83;3.00;;;;;;;;;;4971791;28;20298;-78
2023/10/20 10:09:38;;;;;;;3.70;3.40;;;;;;;;;;4976165;28;20222;-80
2023/10/20 10:12:08;;;;;;;3.93;2.90;;;;;;;;;;4973878;28;20237;-79
2023/10/20 10:14:34;;;;;;;3.27;2.97;;;;;;;;;;4962721;28;20235;-78
2023/10/20 10:17:01;;;;;;;3.53;3.23;;;;;;;;;;4973868;28;20221;-79
2023/10/20 10:19:29;;;;;;;4.07;3.60;;;;;;;;;;4994770;28;20228;-79
2023/10/20 10:21:57;;;;;;;3.07;2.87;;;;;;;;;;4996842;28;20217;-79
2023/10/20 10:24:25;;;;;;;3.20;2.90;;;;;;;;;;4972821;28;20224;-79
2023/10/20 10:26:53;;;;;;;2.97;2.77;;;;;;;;;;4967020;28;20297;-78
2023/10/20 10:29:21;;;;;;;3.33;3.13;;;;;;;;;;5006762;28;20249;-80
2023/10/20 10:31:47;;;;;;;3.03;2.83;;;;;;;;;;4962978;28;20888;-80
2023/10/20 10:34:14;;;;;;;2.80;2.60;;;;;;;;;;4984101;28;20222;-80
2023/10/20 10:36:42;;;;;;;3.30;3.00;;;;;;;;;;4975353;28;20237;-79
2023/10/20 10:39:08;;;;;;;2.80;2.60;;;;;;;;;;4983763;28;20217;-79
2023/10/20 10:41:34;;;;;;;2.50;2.30;;;;;;;;;;4994371;28;20300;-80
2023/10/20 10:44:00;;;;;;;3.90;2.60;;;;;;;;;;4977536;28;20758;-79
2023/10/20 10:46:40;;;;;;;2.70;2.50;;;;;;;;;;4970147;28;20230;-81
2023/10/20 10:49:08;;;;;;;2.60;2.40;;;;;;;;;;5001688;28;20276;-79
2023/10/20 10:51:47;;;;;;;2.63;2.43;;;;;;;;;;4979605;28;20240;-80
2023/10/20 10:54:15;;;;;;;3.30;2.70;;;;;;;;;;4990446;28;20243;-77
2023/10/20 10:56:41;;;;;;;2.23;2.00;;;;;;;;;;4988400;28;20214;-78
2023/10/20 10:59:14;;;;;;;2.40;2.20;;;;;;;;;;5012884;28;20220;-79
2023/10/20 11:01:39;;;;;;;2.17;1.97;;;;;;;;;;4970292;28;20230;-78
2023/10/20 11:04:07;;;;;;;2.77;2.30;;;;;;;;;;4982458;28;20224;-78
2023/10/20 11:06:35;;;;;;;1.97;1.87;;;;;;;;;;5008406;28;20295;-77
2023/10/20 11:09:04;;;;;;;2.40;2.27;;;;;;;;;;4958271;28;20284;-78
2023/10/20 11:11:32;;;;;;;2.50;2.30;;;;;;;;;;5006846;28;20223;-78
2023/10/20 11:14:00;;;;;;;2.40;2.23;;;;;;;;;;4996939;28;20229;-77
2023/10/20 11:16:33;;;;;;;2.47;2.30;;;;;;;;;;5004401;28;20232;-78
2023/10/20 11:19:01;;;;;;;2.10;1.90;;;;;;;;;;4992526;28;20221;-77
2023/10/20 11:21:27;;;;;;;2.17;2.07;;;;;;;;;;4975385;28;20857;-79
2023/10/20 11:23:56;;;;;;;2.57;2.03;;;;;;;;;;4988237;28;20229;-78
2023/10/20 11:26:24;;;;;;;1.90;1.80;;;;;;;;;;4966663;28;20323;-77
2023/10/20 11:28:53;;;;;;;1.70;1.60;;;;;;;;;;4972118;28;20349;-79
2023/10/20 11:31:20;;;;;;;1.50;1.40;;;;;;;;;;4990338;28;20205;-79
2023/10/20 11:33:46;;;;;;;2.17;2.00;;;;;;;;;;4965006;28;20676;-79
2023/10/20 11:36:12;;;;;;;1.73;1.63;;;;;;;;;;4972083;28;20228;-79
2023/10/20 11:38:37;;;;;;;1.80;1.70;;;;;;;;;;5000463;28;20259;-79
2023/10/20 11:41:04;;;;;;;1.40;1.30;;;;;;;;;;4998096;28;20244;-78
2023/10/20 11:43:32;;;;;;;1.70;1.60;;;;;;;;;;4988846;28;20248;-78
2023/10/20 11:45:58;;;;;;;1.27;1.27;;;;;;;;;;4977412;28;20735;-78
2023/10/20 11:48:23;;;;;;;1.50;1.40;;;;;;;;;;4986887;28;20234;-79
2023/10/20 11:50:49;;;;;;;1.40;1.30;;;;;;;;;;4975213;28;20225;-77
2023/10/20 11:53:17;;;;;;;1.60;1.50;;;;;;;;;;4948997;28;20220;-78
2023/10/20 11:55:42;;;;;;;1.60;1.50;;;;;;;;;;4983793;28;20229;-79
2023/10/20 11:58:09;;;;;;;1.70;1.60;;;;;;;;;;4985543;28;20228;-78
2023/10/20 12:00:41;;;;;;;1.63;1.53;;;;;;;;;;4968736;28;20408;-79
2023/10/20 12:03:07;;;;;;;2.00;1.80;;;;;;;;;;4989645;28;20221;-78
2023/10/20 12:05:37;;;;;;;1.70;1.60;;;;;;;;;;4968526;28;20617;-79
2023/10/20 12:08:04;;;;;;;1.27;1.27;;;;;;;;;;4978381;28;20370;-79
2023/10/20 12:10:31;;;;;;;1.90;1.40;;;;;;;;;;4962875;28;20303;-80
2023/10/20 12:12:57;;;;;;;1.10;1.10;;;;;;;;;;4985380;28;20229;-79
2023/10/20 12:15:24;;;;;;;1.60;1.50;;;;;;;;;;4964109;28;20232;-79
2023/10/20 12:17:50;;;;;;;1.37;1.27;;;;;;;;;;4980214;28;20221;-79
2023/10/20 12:20:18;;;;;;;1.20;1.20;;;;;;;;;;4987599;28;20288;-79
2023/10/20 12:22:43;;;;;;;3.23;1.47;;;;;;;;;;4986015;28;20232;-78
2023/10/20 12:25:11;;;;;;;1.47;1.40;;;;;;;;;;4987005;28;20686;-77
2023/10/20 12:27:37;;;;;;;1.47;1.30;;;;;;;;;;4988043;28;20313;-80
2023/10/20 12:30:03;;;;;;;1.47;1.07;;;;;;;;;;4986170;28;20227;-79
2023/10/20 12:32:29;;;;;;;1.50;1.20;;;;;;;;;;4998192;28;20257;-80
2023/10/20 12:34:55;;;;;;;1.10;1.10;;;;;;;;;;4982233;28;20237;-79
2023/10/20 12:37:23;;;;;;;1.00;1.00;;;;;;;;;;4974610;28;20222;-80
2023/10/20 12:39:50;;;;;;;1.13;1.07;;;;;;;;;;4968810;28;20713;-78
2023/10/20 12:42:16;;;;;;;1.47;1.33;;;;;;;;;;4991000;28;20205;-79
2023/10/20 12:44:42;;;;;;;0.90;0.90;;;;;;;;;;4996204;28;20222;-80
2023/10/20 12:47:11;;;;;;;1.30;1.20;;;;;;;;;;4997842;28;20229;-78
2023/10/20 12:49:37;;;;;;;2.30;1.17;;;;;;;;;;4982201;28;20259;-77
2023/10/20 12:52:04;;;;;;;1.30;1.20;;;;;;;;;;4989717;28;20229;-78
2023/10/20 12:54:32;;;;;;;1.17;1.17;;;;;;;;;;4973887;28;20647;-81
2023/10/20 12:57:00;;;;;;;2.80;0.73;;;;;;;;;;5000707;28;20229;-79
2023/10/20 12:59:28;;;;;;;0.90;0.90;;;;;;;;;;4998277;28;20221;-77
2023/10/20 13:01:54;;;;;;;1.17;1.10;;;;;;;;;;4967524;28;20225;-80
2023/10/20 13:04:21;;;;;;;0.97;0.97;;;;;;;;;;4962764;28;20217;-78
2023/10/20 13:06:48;;;;;;;1.00;1.00;;;;;;;;;;4982330;28;20217;-78
2023/10/20 13:09:14;;;;;;;1.37;1.10;;;;;;;;;;4968156;28;20240;-79
2023/10/20 13:11:42;;;;;;;1.27;1.17;;;;;;;;;;4990468;28;20235;-79
2023/10/20 13:16:45;;;;;;;1.20;1.10;;;;;;;;;;4974966;28;20249;-74
2023/10/20 13:19:16;;;;;;;1.47;1.37;;;;;;;;;;4972949;28;20684;-74
2023/10/20 13:21:42;;;;;;;1.00;0.90;;;;;;;;;;4973057;28;20228;-73
2023/10/20 13:24:09;;;;;;;0.80;0.80;;;;;;;;;;4960622;28;20684;-75
2023/10/20 13:26:37;;;;;;;0.80;0.80;;;;;;;;;;4963976;28;20264;-74
2023/10/20 13:29:03;;;;;;;1.37;1.27;;;;;;;;;;4972386;28;20313;-74
2023/10/20 13:31:28;;;;;;;0.83;0.83;;;;;;;;;;4974176;28;20320;-73
2023/10/20 13:33:55;;;;;;;1.00;0.90;;;;;;;;;;4963618;28;20217;-75
2023/10/20 13:36:20;;;;;;;0.90;0.90;;;;;;;;;;4954744;28;20217;-75
2023/10/20 13:38:49;;;;;;;0.90;0.90;;;;;;;;;;4945925;28;20317;-74
2023/10/20 13:41:17;;;;;;;0.97;0.97;;;;;;;;;;4974860;28;20229;-75
2023/10/20 13:43:44;;;;;;;0.90;0.90;;;;;;;;;;4981775;28;20715;-74
2023/10/20 13:46:12;;;;;;;2.70;1.10;;;;;;;;;;4966975;28;20229;-75
2023/10/20 13:48:42;;;;;;;0.80;0.80;;;;;;;;;;4971963;28;20729;-76
2023/10/20 13:51:08;;;;;;;0.80;0.80;;;;;;;;;;4955840;28;20249;-75
2023/10/20 13:53:35;;;;;;;1.20;0.93;;;;;;;;;;4988607;28;20268;-74
2023/10/20 13:56:03;;;;;;;1.00;1.00;;;;;;;;;;4956467;28;20645;-76
2023/10/20 13:58:29;;;;;;;1.87;1.77;;;;;;;;;;4962688;28;20682;-75
2023/10/20 14:00:58;;;;;;;0.90;0.90;;;;;;;;;;4990069;28;20231;-74
2023/10/20 14:03:29;;;;;;;1.20;1.10;;;;;;;;;;4956991;28;20297;-74
2023/10/20 14:05:54;;;;;;;2.10;1.30;;;;;;;;;;4961935;28;20229;-74
2023/10/20 14:08:21;;;;;;;2.10;1.40;;;;;;;;;;4956458;28;20217;-75
2023/10/20 14:10:53;;;;;;;1.10;1.10;;;;;;;;;;4972513;28;20292;-74
2023/10/20 14:13:21;;;;;;;1.10;1.10;;;;;;;;;;4969680;28;20241;-75
2023/10/20 14:15:49;;;;;;;1.10;1.10;;;;;;;;;;4988506;28;20229;-74
2023/10/20 14:18:17;;;;;;;1.30;1.20;;;;;;;;;;4962595;28;20312;-74
2023/10/20 14:20:43;;;;;;;1.07;1.00;;;;;;;;;;4957039;28;20608;-76
2023/10/20 14:23:17;;;;;;;1.00;1.00;;;;;;;;;;4966232;28;20217;-73
2023/10/20 14:25:46;;;;;;;1.07;1.07;;;;;;;;;;4962357;28;20604;-73
2023/10/20 14:28:16;;;;;;;1.43;1.27;;;;;;;;;;4956448;28;20766;-73
2023/10/20 14:30:43;;;;;;;1.23;1.23;;;;;;;;;;4977514;28;20276;-74
2023/10/20 14:33:09;;;;;;;1.07;1.00;;;;;;;;;;4989735;28;20256;-73
2023/10/20 14:35:37;;;;;;;1.20;1.10;;;;;;;;;;4944833;28;20786;-74
2023/10/20 14:38:05;;;;;;;1.10;1.10;;;;;;;;;;4960993;28;20275;-74
2023/10/20 14:40:33;;;;;;;1.67;1.37;;;;;;;;;;4973740;28;20225;-75
2023/10/20 14:42:59;;;;;;;1.40;1.30;;;;;;;;;;4993674;28;21165;-74
2023/10/20 14:45:27;;;;;;;1.10;1.10;;;;;;;;;;4963728;28;20229;-74
2023/10/20 14:47:55;;;;;;;1.67;1.57;;;;;;;;;;4975978;28;20233;-73
2023/10/20 14:50:24;;;;;;;1.20;1.17;;;;;;;;;;4976019;28;20213;-74
2023/10/20 14:52:52;;;;;;;1.60;1.50;;;;;;;;;;4970101;28;20257;-74
2023/10/20 14:55:21;;;;;;;1.27;1.17;;;;;;;;;;4971842;28;20225;-74
2023/10/20 14:57:51;;;;;;;0.90;0.90;;;;;;;;;;4965199;28;20661;-74
2023/10/20 15:00:17;;;;;;;3.37;1.10;;;;;;;;;;4967936;28;20774;-74
2023/10/20 15:02:43;;;;;;;1.00;1.00;;;;;;;;;;4985280;28;20218;-74
2023/10/20 15:05:11;;;;;;;0.93;0.83;;;;;;;;;;4986698;28;20310;-73
2023/10/20 15:07:42;;;;;;;0.97;0.97;;;;;;;;;;4970908;28;20226;-74
2023/10/20 15:10:10;;;;;;;1.23;1.03;;;;;;;;;;4968769;28;20236;-74
2023/10/20 15:12:42;;;;;;;0.90;0.90;;;;;;;;;;4962588;28;20229;-73
2023/10/20 15:15:10;;;;;;;1.00;1.00;;;;;;;;;;4970964;28;20268;-74
2023/10/20 15:17:38;;;;;;;1.00;1.00;;;;;;;;;;4969431;28;20596;-75
2023/10/20 15:20:10;;;;;;;0.70;0.70;;;;;;;;;;4960089;28;20597;-75
2023/10/20 15:22:36;;;;;;;0.80;0.80;;;;;;;;;;4988887;28;20232;-74